sensor_id;sensor_type;location;lat;lon;timestamp;P1;durP1;ratioP1;P2;durP2;ratioP2
44730;SDS011;30458;47.448;19.032;2022-11-02T00:05:38;242.27;;;227.25;;
44730;SDS011;30458;47.448;19.032;2022-11-02T00:15:38;210.43;;;197.17;;
44730;SDS011;30458;47.448;19.032;2022-11-02T00:25:40;1105.43;;;598.78;;
44730;SDS011;30458;47.448;19.032;2022-11-02T00:35:46;207.68;;;194.27;;
44730;SDS011;30458;47.448;19.032;2022-11-02T00:45:47;1999.90;;;999.90;;
44730;SDS011;30458;47.448;19.032;2022-11-02T00:55:50;1109.18;;;602.13;;
44730;SDS011;30458;47.448;19.032;2022-11-02T01:05:53;1999.90;;;999.90;;
44730;SDS011;30458;47.448;19.032;2022-11-02T01:15:53;1999.90;;;999.90;;
44730;SDS011;30458;47.448;19.032;2022-11-02T01:25:55;1999.90;;;999.90;;
44730;SDS011;30458;47.448;19.032;2022-11-02T01:36:00;1999.90;;;999.90;;
44730;SDS011;30458;47.448;19.032;2022-11-02T01:56:09;1999.90;;;999.90;;
44730;SDS011;30458;47.448;19.032;2022-11-02T02:06:16;1999.90;;;999.90;;
44730;SDS011;30458;47.448;19.032;2022-11-02T02:16:20;1999.90;;;999.90;;
44730;SDS011;30458;47.448;19.032;2022-11-02T02:36:49;1999.90;;;999.90;;
44730;SDS011;30458;47.448;19.032;2022-11-02T02:47:04;1999.90;;;999.90;;
44730;SDS011;30458;47.448;19.032;2022-11-02T02:57:19;1999.90;;;999.90;;
44730;SDS011;30458;47.448;19.032;2022-11-02T03:07:26;1999.90;;;999.90;;
44730;SDS011;30458;47.448;19.032;2022-11-02T03:27:54;193.95;;;181.40;;
44730;SDS011;30458;47.448;19.032;2022-11-02T03:38:12;212.75;;;197.43;;
44730;SDS011;30458;47.448;19.032;2022-11-02T03:48:43;212.23;;;197.13;;
44730;SDS011;30458;47.448;19.032;2022-11-02T03:58:49;189.15;;;176.35;;
44730;SDS011;30458;47.448;19.032;2022-11-02T04:08:55;192.18;;;180.55;;
44730;SDS011;30458;47.448;19.032;2022-11-02T04:18:58;193.43;;;180.25;;
44730;SDS011;30458;47.448;19.032;2022-11-02T04:29:18;338.45;;;315.13;;
44730;SDS011;30458;47.448;19.032;2022-11-02T04:39:19;178.70;;;167.13;;
44730;SDS011;30458;47.448;19.032;2022-11-02T04:49:22;1125.40;;;616.47;;
44730;SDS011;30458;47.448;19.032;2022-11-02T04:59:27;183.50;;;172.05;;
44730;SDS011;30458;47.448;19.032;2022-11-02T05:09:27;186.30;;;173.77;;
44730;SDS011;30458;47.448;19.032;2022-11-02T05:19:28;194.35;;;180.70;;
44730;SDS011;30458;47.448;19.032;2022-11-02T05:29:29;192.60;;;179.80;;
44730;SDS011;30458;47.448;19.032;2022-11-02T05:39:35;1999.90;;;999.90;;
44730;SDS011;30458;47.448;19.032;2022-11-02T05:49:38;291.35;;;271.50;;
44730;SDS011;30458;47.448;19.032;2022-11-02T05:59:39;1999.90;;;999.90;;
44730;SDS011;30458;47.448;19.032;2022-11-02T06:09:40;1999.90;;;999.90;;
44730;SDS011;30458;47.448;19.032;2022-11-02T06:19:41;1223.80;;;705.85;;
44730;SDS011;30458;47.448;19.032;2022-11-02T06:29:41;447.70;;;415.67;;
44730;SDS011;30458;47.448;19.032;2022-11-02T06:39:42;1999.90;;;999.90;;
44730;SDS011;30458;47.448;19.032;2022-11-02T06:49:47;1999.90;;;999.90;;
44730;SDS011;30458;47.448;19.032;2022-11-02T06:59:51;507.17;;;470.85;;
44730;SDS011;30458;47.448;19.032;2022-11-02T07:09:54;281.45;;;264.20;;
44730;SDS011;30458;47.448;19.032;2022-11-02T07:19:57;240.90;;;226.13;;
44730;SDS011;30458;47.448;19.032;2022-11-02T07:29:58;268.90;;;251.63;;
44730;SDS011;30458;47.448;19.032;2022-11-02T07:39:58;263.63;;;246.67;;
44730;SDS011;30458;47.448;19.032;2022-11-02T07:50:01;296.38;;;277.70;;
44730;SDS011;30458;47.448;19.032;2022-11-02T08:00:02;328.45;;;305.52;;
44730;SDS011;30458;47.448;19.032;2022-11-02T08:10:11;264.83;;;248.67;;
44730;SDS011;30458;47.448;19.032;2022-11-02T08:20:12;267.38;;;249.38;;
44730;SDS011;30458;47.448;19.032;2022-11-02T08:30:13;287.52;;;266.95;;
44730;SDS011;30458;47.448;19.032;2022-11-02T08:40:14;1999.90;;;999.90;;
44730;SDS011;30458;47.448;19.032;2022-11-02T08:50:15;1999.90;;;999.90;;
44730;SDS011;30458;47.448;19.032;2022-11-02T09:00:16;1999.90;;;999.90;;
44730;SDS011;30458;47.448;19.032;2022-11-02T09:10:21;782.67;;;715.33;;
44730;SDS011;30458;47.448;19.032;2022-11-02T09:20:24;307.47;;;285.53;;
44730;SDS011;30458;47.448;19.032;2022-11-02T09:30:29;467.48;;;433.00;;
44730;SDS011;30458;47.448;19.032;2022-11-02T09:40:37;356.02;;;329.67;;
44730;SDS011;30458;47.448;19.032;2022-11-02T09:50:44;379.70;;;351.83;;
44730;SDS011;30458;47.448;19.032;2022-11-02T10:00:48;350.90;;;324.77;;
44730;SDS011;30458;47.448;19.032;2022-11-02T10:21:23;257.35;;;241.98;;
44730;SDS011;30458;47.448;19.032;2022-11-02T10:31:32;292.10;;;271.80;;
44730;SDS011;30458;47.448;19.032;2022-11-02T10:51:54;255.02;;;239.75;;
44730;SDS011;30458;47.448;19.032;2022-11-02T11:12:05;224.38;;;209.32;;
44730;SDS011;30458;47.448;19.032;2022-11-02T11:32:45;270.65;;;251.63;;
44730;SDS011;30458;47.448;19.032;2022-11-02T11:42:49;356.80;;;332.42;;
44730;SDS011;30458;47.448;19.032;2022-11-02T11:53:10;270.60;;;252.02;;
44730;SDS011;30458;47.448;19.032;2022-11-02T12:03:17;379.77;;;351.77;;
44730;SDS011;30458;47.448;19.032;2022-11-02T12:44:44;270.77;;;252.13;;
44730;SDS011;30458;47.448;19.032;2022-11-02T12:55:07;287.75;;;269.75;;
44730;SDS011;30458;47.448;19.032;2022-11-02T13:05:20;291.70;;;272.48;;
44730;SDS011;30458;47.448;19.032;2022-11-02T13:15:26;313.23;;;291.95;;
44730;SDS011;30458;47.448;19.032;2022-11-02T13:25:33;238.82;;;224.52;;
44730;SDS011;30458;47.448;19.032;2022-11-02T13:35:39;275.20;;;258.02;;
44730;SDS011;30458;47.448;19.032;2022-11-02T13:55:58;256.13;;;240.70;;
44730;SDS011;30458;47.448;19.032;2022-11-02T14:06:08;247.57;;;232.95;;
44730;SDS011;30458;47.448;19.032;2022-11-02T14:16:16;190.47;;;179.23;;
44730;SDS011;30458;47.448;19.032;2022-11-02T14:26:53;328.85;;;305.88;;
44730;SDS011;30458;47.448;19.032;2022-11-02T14:47:14;201.52;;;189.60;;
44730;SDS011;30458;47.448;19.032;2022-11-02T15:07:35;234.93;;;220.45;;
44730;SDS011;30458;47.448;19.032;2022-11-02T15:27:39;181.97;;;171.73;;
44730;SDS011;30458;47.448;19.032;2022-11-02T15:37:42;196.07;;;185.50;;
44730;SDS011;30458;47.448;19.032;2022-11-02T16:08:32;240.03;;;226.27;;
44730;SDS011;30458;47.448;19.032;2022-11-02T16:18:38;244.27;;;229.93;;
44730;SDS011;30458;47.448;19.032;2022-11-02T16:28:39;235.25;;;222.48;;
44730;SDS011;30458;47.448;19.032;2022-11-02T16:38:47;259.83;;;244.35;;
44730;SDS011;30458;47.448;19.032;2022-11-02T16:49:00;269.95;;;254.52;;
44730;SDS011;30458;47.448;19.032;2022-11-02T16:59:03;243.15;;;229.48;;
44730;SDS011;30458;47.448;19.032;2022-11-02T17:09:23;215.60;;;202.80;;
44730;SDS011;30458;47.448;19.032;2022-11-02T17:40:34;147.30;;;138.83;;
44730;SDS011;30458;47.448;19.032;2022-11-02T17:50:38;154.00;;;145.05;;
44730;SDS011;30458;47.448;19.032;2022-11-02T18:00:40;124.30;;;116.65;;
44730;SDS011;30458;47.448;19.032;2022-11-02T18:10:42;131.57;;;123.90;;
44730;SDS011;30458;47.448;19.032;2022-11-02T18:20:48;138.18;;;129.80;;
44730;SDS011;30458;47.448;19.032;2022-11-02T18:30:51;189.38;;;178.48;;
44730;SDS011;30458;47.448;19.032;2022-11-02T18:40:52;175.82;;;165.95;;
44730;SDS011;30458;47.448;19.032;2022-11-02T18:50:52;179.10;;;168.73;;
44730;SDS011;30458;47.448;19.032;2022-11-02T19:00:53;190.87;;;179.80;;
44730;SDS011;30458;47.448;19.032;2022-11-02T19:10:56;192.18;;;181.00;;
44730;SDS011;30458;47.448;19.032;2022-11-02T19:20:57;226.68;;;213.20;;
44730;SDS011;30458;47.448;19.032;2022-11-02T19:30:58;134.10;;;126.70;;
44730;SDS011;30458;47.448;19.032;2022-11-02T19:41:03;159.55;;;150.07;;
44730;SDS011;30458;47.448;19.032;2022-11-02T19:51:11;150.15;;;141.68;;
44730;SDS011;30458;47.448;19.032;2022-11-02T20:01:35;169.68;;;159.25;;
44730;SDS011;30458;47.448;19.032;2022-11-02T20:11:37;178.18;;;167.45;;
44730;SDS011;30458;47.448;19.032;2022-11-02T20:21:43;187.23;;;175.82;;
44730;SDS011;30458;47.448;19.032;2022-11-02T20:31:46;201.93;;;190.00;;
44730;SDS011;30458;47.448;19.032;2022-11-02T20:41:47;187.70;;;176.63;;
44730;SDS011;30458;47.448;19.032;2022-11-02T20:51:55;270.25;;;252.95;;
44730;SDS011;30458;47.448;19.032;2022-11-02T21:01:56;276.05;;;260.67;;
44730;SDS011;30458;47.448;19.032;2022-11-02T21:11:57;248.50;;;234.25;;
44730;SDS011;30458;47.448;19.032;2022-11-02T21:22:16;1999.90;;;999.90;;
44730;SDS011;30458;47.448;19.032;2022-11-02T21:32:16;1548.22;;;795.20;;
44730;SDS011;30458;47.448;19.032;2022-11-02T21:42:20;1999.90;;;999.90;;
44730;SDS011;30458;47.448;19.032;2022-11-02T21:52:21;1999.90;;;999.90;;
44730;SDS011;30458;47.448;19.032;2022-11-02T22:02:22;1999.90;;;999.90;;
44730;SDS011;30458;47.448;19.032;2022-11-02T22:12:22;1999.90;;;999.90;;
44730;SDS011;30458;47.448;19.032;2022-11-02T22:22:47;1999.90;;;999.90;;
44730;SDS011;30458;47.448;19.032;2022-11-02T22:32:47;1999.90;;;999.90;;
44730;SDS011;30458;47.448;19.032;2022-11-02T22:42:53;1999.90;;;999.90;;
44730;SDS011;30458;47.448;19.032;2022-11-02T22:52:55;1999.90;;;999.90;;
44730;SDS011;30458;47.448;19.032;2022-11-02T23:02:56;1999.90;;;999.90;;
44730;SDS011;30458;47.448;19.032;2022-11-02T23:12:57;1999.90;;;999.90;;
44730;SDS011;30458;47.448;19.032;2022-11-02T23:22:58;1999.90;;;999.90;;
44730;SDS011;30458;47.448;19.032;2022-11-02T23:33:19;1999.90;;;999.90;;
44730;SDS011;30458;47.448;19.032;2022-11-02T23:43:21;1999.90;;;999.90;;
44730;SDS011;30458;47.448;19.032;2022-11-02T23:53:24;1999.90;;;999.90;;
